sensor_id;sensor_type;location;lat;lon;timestamp;P1;P2;P0
69736;PMS5003;60097;55.004;73.344;2022-10-15T00:02:02;38.92;10.80;
69736;PMS5003;60097;55.004;73.344;2022-10-15T00:04:29;25.48;10.52;
69736;PMS5003;60097;55.004;73.344;2022-10-15T00:06:57;20.40;9.75;
69736;PMS5003;60097;55.004;73.344;2022-10-15T00:09:23;20.60;9.40;
69736;PMS5003;60097;55.004;73.344;2022-10-15T00:11:54;24.77;11.23;
69736;PMS5003;60097;55.004;73.344;2022-10-15T00:14:21;26.58;10.15;
69736;PMS5003;60097;55.004;73.344;2022-10-15T00:16:49;38.70;9.82;
69736;PMS5003;60097;55.004;73.344;2022-10-15T00:19:16;12.80;7.15;
69736;PMS5003;60097;55.004;73.344;2022-10-15T00:21:42;9.85;5.85;
69736;PMS5003;60097;55.004;73.344;2022-10-15T00:24:12;15.85;6.22;
69736;PMS5003;60097;55.004;73.344;2022-10-15T00:26:39;10.20;7.40;
69736;PMS5003;60097;55.004;73.344;2022-10-15T00:29:05;13.80;7.65;
69736;PMS5003;60097;55.004;73.344;2022-10-15T00:31:32;17.14;8.08;
69736;PMS5003;60097;55.004;73.344;2022-10-15T00:34:04;15.50;8.40;
69736;PMS5003;60097;55.004;73.344;2022-10-15T00:36:32;18.80;9.20;
69736;PMS5003;60097;55.004;73.344;2022-10-15T00:39:30;14.18;6.75;
69736;PMS5003;60097;55.004;73.344;2022-10-15T00:41:56;13.63;6.88;
69736;PMS5003;60097;55.004;73.344;2022-10-15T00:50:05;15.60;6.10;
69736;PMS5003;60097;55.004;73.344;2022-10-15T00:52:36;28.48;9.73;
69736;PMS5003;60097;55.004;73.344;2022-10-15T00:55:28;16.50;6.20;
69736;PMS5003;60097;55.004;73.344;2022-10-15T00:57:52;18.20;8.27;
69736;PMS5003;60097;55.004;73.344;2022-10-15T01:00:21;46.78;9.35;
69736;PMS5003;60097;55.004;73.344;2022-10-15T01:02:48;15.65;6.93;
69736;PMS5003;60097;55.004;73.344;2022-10-15T01:05:16;30.77;8.10;
69736;PMS5003;60097;55.004;73.344;2022-10-15T01:07:43;17.25;8.18;
69736;PMS5003;60097;55.004;73.344;2022-10-15T01:10:10;17.88;8.55;
69736;PMS5003;60097;55.004;73.344;2022-10-15T01:12:51;13.82;7.45;
69736;PMS5003;60097;55.004;73.344;2022-10-15T01:15:43;27.25;7.45;
69736;PMS5003;60097;55.004;73.344;2022-10-15T01:18:20;13.48;6.28;
69736;PMS5003;60097;55.004;73.344;2022-10-15T01:33:35;26.77;5.57;
69736;PMS5003;60097;55.004;73.344;2022-10-15T01:39:13;16.13;5.30;
69736;PMS5003;60097;55.004;73.344;2022-10-15T01:41:50;13.18;5.35;
69736;PMS5003;60097;55.004;73.344;2022-10-15T01:44:31;17.15;5.93;
69736;PMS5003;60097;55.004;73.344;2022-10-15T01:47:11;29.20;5.68;
69736;PMS5003;60097;55.004;73.344;2022-10-15T01:49:42;9.68;5.57;
69736;PMS5003;60097;55.004;73.344;2022-10-15T01:52:15;19.33;6.07;
69736;PMS5003;60097;55.004;73.344;2022-10-15T01:54:48;23.95;7.95;
69736;PMS5003;60097;55.004;73.344;2022-10-15T01:57:16;16.45;5.35;
69736;PMS5003;60097;55.004;73.344;2022-10-15T01:59:44;20.67;6.63;
69736;PMS5003;60097;55.004;73.344;2022-10-15T02:02:11;38.38;6.10;
69736;PMS5003;60097;55.004;73.344;2022-10-15T02:08:25;27.02;8.13;
69736;PMS5003;60097;55.004;73.344;2022-10-15T02:11:02;19.85;7.03;
69736;PMS5003;60097;55.004;73.344;2022-10-15T02:13:49;13.45;6.82;
69736;PMS5003;60097;55.004;73.344;2022-10-15T02:16:37;26.71;7.52;
69736;PMS5003;60097;55.004;73.344;2022-10-15T02:24:41;24.65;6.95;
69736;PMS5003;60097;55.004;73.344;2022-10-15T02:27:09;24.60;6.72;
69736;PMS5003;60097;55.004;73.344;2022-10-15T02:29:38;13.77;7.00;
69736;PMS5003;60097;55.004;73.344;2022-10-15T02:32:05;25.27;7.90;
69736;PMS5003;60097;55.004;73.344;2022-10-15T02:34:33;12.40;7.65;
69736;PMS5003;60097;55.004;73.344;2022-10-15T02:37:01;7.85;6.85;
69736;PMS5003;60097;55.004;73.344;2022-10-15T02:39:29;23.80;8.98;
69736;PMS5003;60097;55.004;73.344;2022-10-15T02:41:57;16.75;8.00;
69736;PMS5003;60097;55.004;73.344;2022-10-15T02:44:55;29.17;7.72;
69736;PMS5003;60097;55.004;73.344;2022-10-15T02:47:24;15.20;7.60;
69736;PMS5003;60097;55.004;73.344;2022-10-15T02:49:51;16.58;7.32;
69736;PMS5003;60097;55.004;73.344;2022-10-15T02:52:19;27.03;7.83;
69736;PMS5003;60097;55.004;73.344;2022-10-15T02:54:47;24.95;9.70;
69736;PMS5003;60097;55.004;73.344;2022-10-15T02:57:14;44.42;11.82;
69736;PMS5003;60097;55.004;73.344;2022-10-15T02:59:43;43.63;12.52;
69736;PMS5003;60097;55.004;73.344;2022-10-15T03:02:09;18.38;10.38;
69736;PMS5003;60097;55.004;73.344;2022-10-15T03:04:36;27.33;14.05;
69736;PMS5003;60097;55.004;73.344;2022-10-15T03:07:06;30.17;10.68;
69736;PMS5003;60097;55.004;73.344;2022-10-15T03:09:33;32.35;12.40;
69736;PMS5003;60097;55.004;73.344;2022-10-15T03:12:02;26.50;9.32;
69736;PMS5003;60097;55.004;73.344;2022-10-15T03:14:30;49.42;9.95;
69736;PMS5003;60097;55.004;73.344;2022-10-15T03:16:58;37.72;13.85;
69736;PMS5003;60097;55.004;73.344;2022-10-15T03:19:25;58.80;10.32;
69736;PMS5003;60097;55.004;73.344;2022-10-15T03:21:53;34.85;11.88;
69736;PMS5003;60097;55.004;73.344;2022-10-15T03:24:20;47.08;10.95;
69736;PMS5003;60097;55.004;73.344;2022-10-15T03:26:47;23.40;9.30;
69736;PMS5003;60097;55.004;73.344;2022-10-15T03:29:13;45.03;10.07;
69736;PMS5003;60097;55.004;73.344;2022-10-15T03:31:50;47.80;10.63;
69736;PMS5003;60097;55.004;73.344;2022-10-15T03:34:27;41.78;10.65;
69736;PMS5003;60097;55.004;73.344;2022-10-15T03:36:53;26.60;9.38;
69736;PMS5003;60097;55.004;73.344;2022-10-15T03:39:20;23.33;9.82;
69736;PMS5003;60097;55.004;73.344;2022-10-15T03:44:50;41.35;10.35;
69736;PMS5003;60097;55.004;73.344;2022-10-15T03:47:19;29.25;8.90;
69736;PMS5003;60097;55.004;73.344;2022-10-15T03:49:47;30.67;8.23;
69736;PMS5003;60097;55.004;73.344;2022-10-15T03:52:14;28.02;9.55;
69736;PMS5003;60097;55.004;73.344;2022-10-15T03:54:42;32.63;9.77;
69736;PMS5003;60097;55.004;73.344;2022-10-15T03:57:15;28.30;9.55;
69736;PMS5003;60097;55.004;73.344;2022-10-15T03:59:45;28.77;10.75;
69736;PMS5003;60097;55.004;73.344;2022-10-15T04:02:13;26.27;9.10;
69736;PMS5003;60097;55.004;73.344;2022-10-15T04:04:41;34.88;9.82;
69736;PMS5003;60097;55.004;73.344;2022-10-15T04:07:07;38.58;10.75;
69736;PMS5003;60097;55.004;73.344;2022-10-15T04:09:35;35.33;10.80;
69736;PMS5003;60097;55.004;73.344;2022-10-15T04:12:28;43.17;10.50;
69736;PMS5003;60097;55.004;73.344;2022-10-15T04:15:00;47.08;10.68;
69736;PMS5003;60097;55.004;73.344;2022-10-15T04:17:27;27.05;9.63;
69736;PMS5003;60097;55.004;73.344;2022-10-15T04:19:53;58.47;12.75;
69736;PMS5003;60097;55.004;73.344;2022-10-15T04:22:24;42.75;11.02;
69736;PMS5003;60097;55.004;73.344;2022-10-15T04:24:56;33.00;11.00;
69736;PMS5003;60097;55.004;73.344;2022-10-15T04:27:25;49.50;14.57;
69736;PMS5003;60097;55.004;73.344;2022-10-15T04:29:58;67.65;16.15;
69736;PMS5003;60097;55.004;73.344;2022-10-15T04:33:02;58.95;14.02;
69736;PMS5003;60097;55.004;73.344;2022-10-15T04:35:33;71.95;12.68;
69736;PMS5003;60097;55.004;73.344;2022-10-15T04:38:07;45.95;12.15;
69736;PMS5003;60097;55.004;73.344;2022-10-15T04:40:59;102.38;50.83;
69736;PMS5003;60097;55.004;73.344;2022-10-15T04:43:34;50.65;21.83;
69736;PMS5003;60097;55.004;73.344;2022-10-15T04:46:05;68.90;16.00;
69736;PMS5003;60097;55.004;73.344;2022-10-15T04:48:34;58.85;12.02;
69736;PMS5003;60097;55.004;73.344;2022-10-15T04:53:46;92.35;37.58;
69736;PMS5003;60097;55.004;73.344;2022-10-15T04:56:14;55.70;20.33;
69736;PMS5003;60097;55.004;73.344;2022-10-15T04:59:11;77.07;19.02;
69736;PMS5003;60097;55.004;73.344;2022-10-15T05:02:15;73.32;14.85;
69736;PMS5003;60097;55.004;73.344;2022-10-15T05:04:55;64.07;16.52;
69736;PMS5003;60097;55.004;73.344;2022-10-15T05:07:22;58.60;17.48;
69736;PMS5003;60097;55.004;73.344;2022-10-15T05:09:50;65.53;16.88;
69736;PMS5003;60097;55.004;73.344;2022-10-15T05:12:16;91.05;19.15;
69736;PMS5003;60097;55.004;73.344;2022-10-15T05:14:43;88.55;20.42;
69736;PMS5003;60097;55.004;73.344;2022-10-15T05:17:16;89.45;22.38;
69736;PMS5003;60097;55.004;73.344;2022-10-15T05:19:44;87.95;21.63;
69736;PMS5003;60097;55.004;73.344;2022-10-15T05:25:20;86.00;21.52;
69736;PMS5003;60097;55.004;73.344;2022-10-15T05:27:49;92.45;23.00;
69736;PMS5003;60097;55.004;73.344;2022-10-15T05:30:18;83.13;21.20;
69736;PMS5003;60097;55.004;73.344;2022-10-15T05:32:52;66.07;22.10;
69736;PMS5003;60097;55.004;73.344;2022-10-15T05:35:21;64.22;22.27;
69736;PMS5003;60097;55.004;73.344;2022-10-15T05:38:46;84.35;21.77;
69736;PMS5003;60097;55.004;73.344;2022-10-15T05:41:13;76.63;23.77;
69736;PMS5003;60097;55.004;73.344;2022-10-15T05:43:41;87.50;23.30;
69736;PMS5003;60097;55.004;73.344;2022-10-15T05:46:29;83.10;24.52;
69736;PMS5003;60097;55.004;73.344;2022-10-15T05:48:56;77.72;24.10;
69736;PMS5003;60097;55.004;73.344;2022-10-15T05:51:29;79.04;24.54;
69736;PMS5003;60097;55.004;73.344;2022-10-15T05:54:11;92.05;26.48;
69736;PMS5003;60097;55.004;73.344;2022-10-15T05:56:44;92.00;26.70;
69736;PMS5003;60097;55.004;73.344;2022-10-15T05:59:15;110.90;27.23;
69736;PMS5003;60097;55.004;73.344;2022-10-15T06:01:47;93.90;26.63;
69736;PMS5003;60097;55.004;73.344;2022-10-15T06:04:14;75.93;26.55;
69736;PMS5003;60097;55.004;73.344;2022-10-15T06:06:41;74.90;28.30;
69736;PMS5003;60097;55.004;73.344;2022-10-15T06:09:08;84.57;26.80;
69736;PMS5003;60097;55.004;73.344;2022-10-15T06:11:37;100.03;28.43;
69736;PMS5003;60097;55.004;73.344;2022-10-15T06:14:03;101.75;28.58;
69736;PMS5003;60097;55.004;73.344;2022-10-15T06:16:30;61.85;27.75;
69736;PMS5003;60097;55.004;73.344;2022-10-15T06:19:03;82.78;28.55;
69736;PMS5003;60097;55.004;73.344;2022-10-15T06:21:30;106.03;25.80;
69736;PMS5003;60097;55.004;73.344;2022-10-15T06:23:56;79.25;25.67;
69736;PMS5003;60097;55.004;73.344;2022-10-15T06:26:29;88.60;26.10;
69736;PMS5003;60097;55.004;73.344;2022-10-15T06:28:57;101.07;26.67;
69736;PMS5003;60097;55.004;73.344;2022-10-15T06:31:30;62.08;21.50;
69736;PMS5003;60097;55.004;73.344;2022-10-15T06:33:56;79.85;21.92;
69736;PMS5003;60097;55.004;73.344;2022-10-15T06:36:29;61.33;21.05;
69736;PMS5003;60097;55.004;73.344;2022-10-15T06:38:55;58.22;21.15;
69736;PMS5003;60097;55.004;73.344;2022-10-15T06:41:29;42.39;19.11;
69736;PMS5003;60097;55.004;73.344;2022-10-15T06:43:56;38.58;14.88;
69736;PMS5003;60097;55.004;73.344;2022-10-15T06:46:29;59.12;17.28;
69736;PMS5003;60097;55.004;73.344;2022-10-15T06:49:01;31.92;14.20;
69736;PMS5003;60097;55.004;73.344;2022-10-15T06:54:29;45.90;14.90;
69736;PMS5003;60097;55.004;73.344;2022-10-15T06:59:54;44.13;15.45;
69736;PMS5003;60097;55.004;73.344;2022-10-15T07:02:53;41.03;15.37;
69736;PMS5003;60097;55.004;73.344;2022-10-15T07:05:20;57.72;14.20;
69736;PMS5003;60097;55.004;73.344;2022-10-15T07:08:02;32.90;12.50;
69736;PMS5003;60097;55.004;73.344;2022-10-15T07:10:34;45.60;12.45;
69736;PMS5003;60097;55.004;73.344;2022-10-15T07:13:00;22.92;11.27;
69736;PMS5003;60097;55.004;73.344;2022-10-15T07:15:35;24.63;11.10;
69736;PMS5003;60097;55.004;73.344;2022-10-15T07:18:01;26.13;11.00;
69736;PMS5003;60097;55.004;73.344;2022-10-15T07:20:29;38.88;12.23;
69736;PMS5003;60097;55.004;73.344;2022-10-15T07:23:04;30.50;10.52;
69736;PMS5003;60097;55.004;73.344;2022-10-15T07:25:34;22.42;10.50;
69736;PMS5003;60097;55.004;73.344;2022-10-15T07:28:01;39.45;9.85;
69736;PMS5003;60097;55.004;73.344;2022-10-15T07:30:28;29.55;10.55;
69736;PMS5003;60097;55.004;73.344;2022-10-15T07:32:58;23.05;9.32;
69736;PMS5003;60097;55.004;73.344;2022-10-15T07:35:25;21.20;8.93;
69736;PMS5003;60097;55.004;73.344;2022-10-15T07:37:52;29.20;9.70;
69736;PMS5003;60097;55.004;73.344;2022-10-15T07:40:19;27.40;9.27;
69736;PMS5003;60097;55.004;73.344;2022-10-15T07:42:53;14.18;7.15;
69736;PMS5003;60097;55.004;73.344;2022-10-15T07:45:20;15.48;6.65;
69736;PMS5003;60097;55.004;73.344;2022-10-15T07:47:47;18.35;4.63;
69736;PMS5003;60097;55.004;73.344;2022-10-15T07:50:14;3.60;3.00;
69736;PMS5003;60097;55.004;73.344;2022-10-15T07:52:40;8.82;2.78;
69736;PMS5003;60097;55.004;73.344;2022-10-15T07:55:07;9.13;3.05;
69736;PMS5003;60097;55.004;73.344;2022-10-15T07:57:34;9.38;3.55;
69736;PMS5003;60097;55.004;73.344;2022-10-15T08:00:02;11.65;3.28;
69736;PMS5003;60097;55.004;73.344;2022-10-15T08:02:38;7.25;3.08;
69736;PMS5003;60097;55.004;73.344;2022-10-15T08:05:09;5.43;2.65;
69736;PMS5003;60097;55.004;73.344;2022-10-15T08:07:44;10.40;3.15;
69736;PMS5003;60097;55.004;73.344;2022-10-15T08:10:11;5.18;4.15;
69736;PMS5003;60097;55.004;73.344;2022-10-15T08:12:43;5.05;2.88;
69736;PMS5003;60097;55.004;73.344;2022-10-15T08:15:19;13.20;3.38;
69736;PMS5003;60097;55.004;73.344;2022-10-15T08:17:49;7.93;3.97;
69736;PMS5003;60097;55.004;73.344;2022-10-15T08:20:16;8.65;3.38;
69736;PMS5003;60097;55.004;73.344;2022-10-15T08:22:42;20.67;6.40;
69736;PMS5003;60097;55.004;73.344;2022-10-15T08:25:08;9.70;4.70;
69736;PMS5003;60097;55.004;73.344;2022-10-15T08:27:35;32.05;5.30;
69736;PMS5003;60097;55.004;73.344;2022-10-15T08:30:08;12.85;5.45;
69736;PMS5003;60097;55.004;73.344;2022-10-15T08:32:35;6.65;5.65;
69736;PMS5003;60097;55.004;73.344;2022-10-15T08:35:02;12.00;5.97;
69736;PMS5003;60097;55.004;73.344;2022-10-15T08:37:31;8.98;4.63;
69736;PMS5003;60097;55.004;73.344;2022-10-15T08:39:57;13.27;4.88;
69736;PMS5003;60097;55.004;73.344;2022-10-15T08:42:38;10.98;5.38;
69736;PMS5003;60097;55.004;73.344;2022-10-15T08:45:16;22.57;5.63;
69736;PMS5003;60097;55.004;73.344;2022-10-15T08:47:49;10.35;6.28;
69736;PMS5003;60097;55.004;73.344;2022-10-15T08:53:03;17.80;4.85;
69736;PMS5003;60097;55.004;73.344;2022-10-15T08:55:37;16.13;4.97;
69736;PMS5003;60097;55.004;73.344;2022-10-15T09:04:06;19.05;9.25;
69736;PMS5003;60097;55.004;73.344;2022-10-15T09:06:44;18.73;8.23;
69736;PMS5003;60097;55.004;73.344;2022-10-15T09:14:38;15.13;8.48;
69736;PMS5003;60097;55.004;73.344;2022-10-15T09:17:14;10.87;6.73;
69736;PMS5003;60097;55.004;73.344;2022-10-15T09:19:49;14.05;7.05;
69736;PMS5003;60097;55.004;73.344;2022-10-15T09:25:22;13.35;9.23;
69736;PMS5003;60097;55.004;73.344;2022-10-15T09:27:50;16.08;7.60;
69736;PMS5003;60097;55.004;73.344;2022-10-15T09:33:42;10.65;5.90;
69736;PMS5003;60097;55.004;73.344;2022-10-15T09:36:18;14.90;6.97;
69736;PMS5003;60097;55.004;73.344;2022-10-15T09:44:14;21.23;6.10;
69736;PMS5003;60097;55.004;73.344;2022-10-15T09:46:47;10.70;4.75;
69736;PMS5003;60097;55.004;73.344;2022-10-15T09:49:25;13.43;5.78;
69736;PMS5003;60097;55.004;73.344;2022-10-15T09:51:58;23.77;8.05;
69736;PMS5003;60097;55.004;73.344;2022-10-15T09:54:50;9.75;5.40;
69736;PMS5003;60097;55.004;73.344;2022-10-15T09:57:36;24.73;6.28;
69736;PMS5003;60097;55.004;73.344;2022-10-15T10:00:05;13.07;4.65;
69736;PMS5003;60097;55.004;73.344;2022-10-15T10:02:41;11.07;5.10;
69736;PMS5003;60097;55.004;73.344;2022-10-15T10:08:13;12.45;5.50;
69736;PMS5003;60097;55.004;73.344;2022-10-15T10:13:54;9.82;5.10;
69736;PMS5003;60097;55.004;73.344;2022-10-15T10:16:29;12.68;4.28;
69736;PMS5003;60097;55.004;73.344;2022-10-15T10:21:41;16.55;4.60;
69736;PMS5003;60097;55.004;73.344;2022-10-15T10:24:27;15.48;4.75;
69736;PMS5003;60097;55.004;73.344;2022-10-15T10:27:22;9.98;4.43;
69736;PMS5003;60097;55.004;73.344;2022-10-15T10:29:52;24.13;5.15;
69736;PMS5003;60097;55.004;73.344;2022-10-15T10:33:13;11.55;5.03;
69736;PMS5003;60097;55.004;73.344;2022-10-15T10:35:50;12.45;5.50;
69736;PMS5003;60097;55.004;73.344;2022-10-15T10:38:31;13.25;5.95;
69736;PMS5003;60097;55.004;73.344;2022-10-15T10:41:10;12.75;5.65;
69736;PMS5003;60097;55.004;73.344;2022-10-15T10:43:39;16.83;6.40;
69736;PMS5003;60097;55.004;73.344;2022-10-15T10:46:18;23.63;6.25;
69736;PMS5003;60097;55.004;73.344;2022-10-15T10:51:56;10.13;5.30;
69736;PMS5003;60097;55.004;73.344;2022-10-15T10:54:22;11.98;5.43;
69736;PMS5003;60097;55.004;73.344;2022-10-15T10:56:49;12.03;5.60;
69736;PMS5003;60097;55.004;73.344;2022-10-15T10:59:22;14.95;5.32;
69736;PMS5003;60097;55.004;73.344;2022-10-15T11:01:54;23.20;6.78;
69736;PMS5003;60097;55.004;73.344;2022-10-15T11:04:23;14.98;7.72;
69736;PMS5003;60097;55.004;73.344;2022-10-15T11:07:01;30.50;8.25;
69736;PMS5003;60097;55.004;73.344;2022-10-15T11:10:03;26.48;8.57;
69736;PMS5003;60097;55.004;73.344;2022-10-15T11:13:01;42.05;9.43;
69736;PMS5003;60097;55.004;73.344;2022-10-15T11:18:34;29.80;9.10;
69736;PMS5003;60097;55.004;73.344;2022-10-15T11:23:53;54.28;11.55;
69736;PMS5003;60097;55.004;73.344;2022-10-15T11:35:09;42.78;11.10;
69736;PMS5003;60097;55.004;73.344;2022-10-15T11:47:15;49.25;12.27;
69736;PMS5003;60097;55.004;73.344;2022-10-15T11:55:54;40.75;14.60;
69736;PMS5003;60097;55.004;73.344;2022-10-15T11:58:28;50.05;15.30;
69736;PMS5003;60097;55.004;73.344;2022-10-15T12:01:09;62.15;17.02;
69736;PMS5003;60097;55.004;73.344;2022-10-15T12:03:48;41.13;15.67;
69736;PMS5003;60097;55.004;73.344;2022-10-15T12:06:30;42.47;15.13;
69736;PMS5003;60097;55.004;73.344;2022-10-15T12:09:00;51.22;15.75;
69736;PMS5003;60097;55.004;73.344;2022-10-15T12:25:45;62.75;24.17;
69736;PMS5003;60097;55.004;73.344;2022-10-15T12:30:57;53.50;27.10;
69736;PMS5003;60097;55.004;73.344;2022-10-15T12:33:35;86.88;29.63;
69736;PMS5003;60097;55.004;73.344;2022-10-15T12:41:41;56.22;28.58;
69736;PMS5003;60097;55.004;73.344;2022-10-15T12:46:46;67.38;29.30;
69736;PMS5003;60097;55.004;73.344;2022-10-15T12:51:55;64.15;27.52;
69736;PMS5003;60097;55.004;73.344;2022-10-15T12:54:34;74.22;28.08;
69736;PMS5003;60097;55.004;73.344;2022-10-15T13:02:35;113.82;39.22;
69736;PMS5003;60097;55.004;73.344;2022-10-15T13:05:04;109.13;49.05;
69736;PMS5003;60097;55.004;73.344;2022-10-15T13:07:33;131.25;57.05;
69736;PMS5003;60097;55.004;73.344;2022-10-15T13:10:03;144.57;66.97;
69736;PMS5003;60097;55.004;73.344;2022-10-15T13:12:30;158.60;66.82;
69736;PMS5003;60097;55.004;73.344;2022-10-15T13:15:01;148.20;68.87;
69736;PMS5003;60097;55.004;73.344;2022-10-15T13:17:36;140.75;67.97;
69736;PMS5003;60097;55.004;73.344;2022-10-15T13:20:22;152.02;68.18;
69736;PMS5003;60097;55.004;73.344;2022-10-15T13:25:46;138.23;67.32;
69736;PMS5003;60097;55.004;73.344;2022-10-15T13:28:28;155.52;69.05;
69736;PMS5003;60097;55.004;73.344;2022-10-15T13:31:35;134.93;63.09;
69736;PMS5003;60097;55.004;73.344;2022-10-15T13:36:47;112.20;52.78;
69736;PMS5003;60097;55.004;73.344;2022-10-15T13:39:37;86.10;47.10;
69736;PMS5003;60097;55.004;73.344;2022-10-15T13:44:40;82.45;34.75;
69736;PMS5003;60097;55.004;73.344;2022-10-15T13:52:54;52.80;25.45;
69736;PMS5003;60097;55.004;73.344;2022-10-15T13:55:24;66.15;26.73;
69736;PMS5003;60097;55.004;73.344;2022-10-15T13:57:59;69.75;29.08;
69736;PMS5003;60097;55.004;73.344;2022-10-15T14:00:39;54.95;28.52;
69736;PMS5003;60097;55.004;73.344;2022-10-15T14:03:18;64.97;28.35;
69736;PMS5003;60097;55.004;73.344;2022-10-15T14:06:10;65.30;29.45;
69736;PMS5003;60097;55.004;73.344;2022-10-15T14:11:52;79.35;34.25;
69736;PMS5003;60097;55.004;73.344;2022-10-15T14:16:54;82.13;37.55;
69736;PMS5003;60097;55.004;73.344;2022-10-15T14:19:21;95.75;39.03;
69736;PMS5003;60097;55.004;73.344;2022-10-15T14:21:51;81.90;39.58;
69736;PMS5003;60097;55.004;73.344;2022-10-15T14:24:18;80.22;38.22;
69736;PMS5003;60097;55.004;73.344;2022-10-15T14:29:51;88.90;38.47;
69736;PMS5003;60097;55.004;73.344;2022-10-15T14:32:26;91.28;35.90;
69736;PMS5003;60097;55.004;73.344;2022-10-15T14:34:53;79.47;35.63;
69736;PMS5003;60097;55.004;73.344;2022-10-15T14:40:01;76.72;35.28;
69736;PMS5003;60097;55.004;73.344;2022-10-15T14:42:30;74.07;37.50;
69736;PMS5003;60097;55.004;73.344;2022-10-15T14:45:12;95.10;39.80;
69736;PMS5003;60097;55.004;73.344;2022-10-15T14:47:47;83.53;40.08;
69736;PMS5003;60097;55.004;73.344;2022-10-15T14:50:29;79.68;40.47;
69736;PMS5003;60097;55.004;73.344;2022-10-15T14:52:57;92.75;44.75;
69736;PMS5003;60097;55.004;73.344;2022-10-15T14:55:29;92.20;44.72;
69736;PMS5003;60097;55.004;73.344;2022-10-15T14:57:59;91.80;46.03;
69736;PMS5003;60097;55.004;73.344;2022-10-15T15:00:53;97.90;45.75;
69736;PMS5003;60097;55.004;73.344;2022-10-15T15:03:36;114.13;54.15;
69736;PMS5003;60097;55.004;73.344;2022-10-15T15:06:04;107.10;51.88;
69736;PMS5003;60097;55.004;73.344;2022-10-15T15:08:31;120.63;53.80;
69736;PMS5003;60097;55.004;73.344;2022-10-15T15:10:58;81.05;43.05;
69736;PMS5003;60097;55.004;73.344;2022-10-15T15:13:27;97.72;46.03;
69736;PMS5003;60097;55.004;73.344;2022-10-15T15:15:55;90.38;42.38;
69736;PMS5003;60097;55.004;73.344;2022-10-15T15:18:22;93.05;39.80;
69736;PMS5003;60097;55.004;73.344;2022-10-15T15:20:49;75.82;37.38;
69736;PMS5003;60097;55.004;73.344;2022-10-15T15:23:19;66.00;35.05;
69736;PMS5003;60097;55.004;73.344;2022-10-15T15:25:55;69.47;35.58;
69736;PMS5003;60097;55.004;73.344;2022-10-15T15:28:23;87.28;34.42;
69736;PMS5003;60097;55.004;73.344;2022-10-15T15:30:55;73.22;35.97;
69736;PMS5003;60097;55.004;73.344;2022-10-15T15:33:27;78.13;34.00;
69736;PMS5003;60097;55.004;73.344;2022-10-15T15:36:03;62.50;33.70;
69736;PMS5003;60097;55.004;73.344;2022-10-15T15:38:30;55.90;32.67;
69736;PMS5003;60097;55.004;73.344;2022-10-15T15:41:00;82.32;31.65;
69736;PMS5003;60097;55.004;73.344;2022-10-15T15:43:28;79.20;35.08;
69736;PMS5003;60097;55.004;73.344;2022-10-15T15:45:55;66.65;32.78;
69736;PMS5003;60097;55.004;73.344;2022-10-15T15:48:32;60.63;32.80;
69736;PMS5003;60097;55.004;73.344;2022-10-15T15:51:05;73.03;31.52;
69736;PMS5003;60097;55.004;73.344;2022-10-15T15:53:37;63.90;32.90;
69736;PMS5003;60097;55.004;73.344;2022-10-15T15:56:10;83.25;34.85;
69736;PMS5003;60097;55.004;73.344;2022-10-15T15:58:45;107.45;35.85;
69736;PMS5003;60097;55.004;73.344;2022-10-15T16:01:19;55.20;30.70;
69736;PMS5003;60097;55.004;73.344;2022-10-15T16:03:46;62.72;31.20;
69736;PMS5003;60097;55.004;73.344;2022-10-15T16:06:17;63.80;29.42;
69736;PMS5003;60097;55.004;73.344;2022-10-15T16:08:44;47.45;26.67;
69736;PMS5003;60097;55.004;73.344;2022-10-15T16:11:10;50.42;23.83;
69736;PMS5003;60097;55.004;73.344;2022-10-15T16:13:41;44.75;21.42;
69736;PMS5003;60097;55.004;73.344;2022-10-15T16:16:09;46.30;22.33;
69736;PMS5003;60097;55.004;73.344;2022-10-15T16:18:35;52.90;22.47;
69736;PMS5003;60097;55.004;73.344;2022-10-15T16:21:03;49.08;23.20;
69736;PMS5003;60097;55.004;73.344;2022-10-15T16:23:29;56.97;23.00;
69736;PMS5003;60097;55.004;73.344;2022-10-15T16:25:56;42.10;21.30;
69736;PMS5003;60097;55.004;73.344;2022-10-15T16:28:26;54.23;21.63;
69736;PMS5003;60097;55.004;73.344;2022-10-15T16:31:11;51.85;20.95;
69736;PMS5003;60097;55.004;73.344;2022-10-15T16:33:41;45.95;22.45;
69736;PMS5003;60097;55.004;73.344;2022-10-15T16:36:07;43.92;23.05;
69736;PMS5003;60097;55.004;73.344;2022-10-15T16:38:39;56.92;24.02;
69736;PMS5003;60097;55.004;73.344;2022-10-15T16:41:07;56.53;25.92;
69736;PMS5003;60097;55.004;73.344;2022-10-15T16:43:40;61.83;28.77;
69736;PMS5003;60097;55.004;73.344;2022-10-15T16:46:07;101.32;35.88;
69736;PMS5003;60097;55.004;73.344;2022-10-15T16:48:34;62.78;31.63;
69736;PMS5003;60097;55.004;73.344;2022-10-15T16:51:04;89.75;46.65;
69736;PMS5003;60097;55.004;73.344;2022-10-15T16:54:04;120.68;50.65;
69736;PMS5003;60097;55.004;73.344;2022-10-15T16:56:31;74.90;42.05;
69736;PMS5003;60097;55.004;73.344;2022-10-15T16:58:59;68.88;34.92;
69736;PMS5003;60097;55.004;73.344;2022-10-15T17:01:26;63.78;35.20;
69736;PMS5003;60097;55.004;73.344;2022-10-15T17:03:53;73.80;33.38;
69736;PMS5003;60097;55.004;73.344;2022-10-15T17:06:22;53.45;26.65;
69736;PMS5003;60097;55.004;73.344;2022-10-15T17:08:51;56.72;28.15;
69736;PMS5003;60097;55.004;73.344;2022-10-15T17:11:19;55.47;27.05;
69736;PMS5003;60097;55.004;73.344;2022-10-15T17:14:19;69.38;26.45;
69736;PMS5003;60097;55.004;73.344;2022-10-15T17:16:47;61.38;26.63;
69736;PMS5003;60097;55.004;73.344;2022-10-15T17:19:15;66.70;26.40;
69736;PMS5003;60097;55.004;73.344;2022-10-15T17:21:43;61.17;27.23;
69736;PMS5003;60097;55.004;73.344;2022-10-15T17:24:10;49.17;26.42;
69736;PMS5003;60097;55.004;73.344;2022-10-15T17:26:39;57.30;25.90;
69736;PMS5003;60097;55.004;73.344;2022-10-15T17:31:38;50.83;24.85;
69736;PMS5003;60097;55.004;73.344;2022-10-15T17:34:05;74.00;26.75;
69736;PMS5003;60097;55.004;73.344;2022-10-15T17:36:37;54.42;27.10;
69736;PMS5003;60097;55.004;73.344;2022-10-15T17:39:41;63.65;26.17;
69736;PMS5003;60097;55.004;73.344;2022-10-15T17:42:18;64.00;25.02;
69736;PMS5003;60097;55.004;73.344;2022-10-15T17:44:46;53.38;23.88;
69736;PMS5003;60097;55.004;73.344;2022-10-15T17:47:13;50.15;22.98;
69736;PMS5003;60097;55.004;73.344;2022-10-15T17:49:40;62.90;23.33;
69736;PMS5003;60097;55.004;73.344;2022-10-15T17:52:06;60.33;26.30;
69736;PMS5003;60097;55.004;73.344;2022-10-15T17:54:33;51.80;25.95;
69736;PMS5003;60097;55.004;73.344;2022-10-15T17:57:10;47.45;25.48;
69736;PMS5003;60097;55.004;73.344;2022-10-15T17:59:36;57.92;26.05;
69736;PMS5003;60097;55.004;73.344;2022-10-15T18:02:02;67.70;27.58;
69736;PMS5003;60097;55.004;73.344;2022-10-15T18:05:13;55.35;27.20;
69736;PMS5003;60097;55.004;73.344;2022-10-15T18:07:40;53.95;27.55;